createdAt,value
2018-12-17T00:01:22.022Z,46.33
2018-12-17T00:05:30.606Z,45.20
2018-12-17T00:09:39.753Z,47.17
2018-12-17T00:13:45.741Z,44.83
2018-12-17T00:17:51.859Z,46.77
2018-12-17T00:21:57.680Z,47.70
2018-12-17T00:26:03.630Z,44.80
2018-12-17T00:30:11.039Z,46.60
2018-12-17T00:34:17.096Z,45.63
2018-12-17T00:38:22.960Z,50.05
2018-12-17T00:42:28.698Z,44.10
2018-12-17T00:46:35.039Z,46.40
2018-12-17T00:50:41.230Z,43.90
2018-12-17T00:54:46.953Z,46.45
2018-12-17T00:58:52.874Z,44.10
2018-12-17T01:02:58.807Z,43.87
2018-12-17T01:07:04.802Z,45.58
2018-12-17T01:11:10.893Z,44.98
2018-12-17T01:15:16.674Z,45.28
2018-12-17T01:19:23.755Z,50.80
2018-12-17T01:23:29.556Z,44.70
2018-12-17T01:27:35.879Z,44.90
2018-12-17T01:31:41.462Z,45.55
2018-12-17T01:35:47.288Z,48.58
2018-12-17T01:39:53.086Z,45.37
2018-12-17T01:43:58.893Z,46.13
2018-12-17T01:48:04.921Z,44.38
2018-12-17T01:52:10.923Z,42.80
2018-12-17T01:56:16.679Z,40.48
2018-12-17T02:00:22.599Z,38.23
2018-12-17T02:04:28.355Z,42.40
2018-12-17T02:08:34.605Z,41.35
2018-12-17T02:12:41.034Z,38.02
2018-12-17T02:16:47.005Z,43.33
2018-12-17T02:20:52.882Z,42.65
2018-12-17T02:24:58.390Z,39.67
2018-12-17T02:29:04.207Z,40.90
2018-12-17T02:33:10.014Z,40.23
2018-12-17T02:37:15.909Z,41.40
2018-12-17T02:41:22.395Z,46.63
2018-12-17T02:45:28.370Z,48.02
2018-12-17T02:49:34.322Z,44.38
2018-12-17T02:53:40.069Z,43.20
2018-12-17T02:57:45.895Z,45.65
2018-12-17T03:01:52.893Z,48.00
2018-12-17T03:05:58.963Z,46.25
2018-12-17T03:10:05.599Z,51.85
2018-12-17T03:14:11.350Z,46.63
2018-12-17T03:18:17.198Z,50.43
2018-12-17T03:22:23.328Z,47.45
2018-12-17T03:26:29.140Z,44.48
2018-12-17T03:30:35.026Z,51.92
2018-12-17T03:34:40.945Z,55.12
2018-12-17T03:38:47.173Z,40.80
2018-12-17T03:42:53.122Z,46.18
2018-12-17T03:47:00.090Z,76.00
2018-12-17T03:51:06.060Z,56.75
2018-12-17T03:55:12.091Z,57.00
2018-12-17T03:59:17.893Z,44.73
2018-12-17T04:03:23.720Z,56.40
2018-12-17T04:07:29.474Z,38.78
2018-12-17T04:11:35.385Z,42.78
2018-12-17T04:15:41.163Z,39.20
2018-12-17T04:19:46.904Z,41.75
2018-12-17T04:23:52.718Z,44.23
2018-12-17T04:28:00.610Z,40.78
2018-12-17T04:32:06.338Z,40.33
2018-12-17T04:36:12.201Z,38.17
2018-12-17T04:40:18.138Z,38.88
2018-12-17T04:44:24.026Z,38.38
2018-12-17T04:48:30.060Z,39.80
2018-12-17T04:52:35.919Z,37.93
2018-12-17T04:56:41.684Z,38.28
2018-12-17T05:00:47.634Z,35.73
2018-12-17T05:04:53.415Z,36.55
2018-12-17T05:08:59.386Z,35.70
2018-12-17T05:13:05.286Z,36.68
2018-12-17T05:17:11.336Z,34.60
2018-12-17T05:21:17.164Z,36.03
2018-12-17T05:25:23.091Z,33.10
2018-12-17T05:29:29.540Z,32.50
2018-12-17T05:33:35.588Z,32.20
2018-12-17T05:37:41.820Z,32.28
2018-12-17T05:41:47.751Z,32.73
2018-12-17T05:45:53.661Z,32.63
2018-12-17T05:49:59.662Z,33.42
2018-12-17T05:54:05.571Z,35.15
2018-12-17T05:58:11.409Z,37.28
2018-12-17T06:02:17.250Z,53.63
2018-12-17T06:06:24.118Z,40.90
2018-12-17T06:10:30.816Z,38.92
2018-12-17T06:14:36.662Z,43.60
2018-12-17T06:18:44.043Z,46.20
2018-12-17T06:22:50.265Z,47.62
2018-12-17T06:26:56.507Z,44.83
2018-12-17T06:31:02.619Z,52.55
2018-12-17T06:35:08.888Z,50.67
2018-12-17T06:39:14.945Z,54.42
2018-12-17T06:43:21.097Z,51.60
2018-12-17T06:47:26.981Z,54.93
2018-12-17T06:51:33.751Z,45.35
2018-12-17T06:55:39.587Z,50.90
2018-12-17T06:59:45.400Z,51.55
2018-12-17T07:03:51.104Z,49.90
2018-12-17T07:07:56.668Z,49.95
2018-12-17T07:12:02.333Z,57.05
2018-12-17T07:16:07.922Z,64.25
2018-12-17T07:20:13.590Z,49.83
2018-12-17T07:24:19.350Z,52.08
2018-12-17T07:28:25.658Z,54.55
2018-12-17T07:32:31.235Z,41.90
2018-12-17T07:36:37.304Z,48.10
2018-12-17T07:40:43.215Z,49.38
2018-12-17T07:44:48.758Z,48.65
2018-12-17T07:48:54.322Z,52.80
2018-12-17T07:53:00.477Z,51.23
2018-12-17T07:57:06.103Z,55.48
2018-12-17T08:01:11.716Z,48.23
2018-12-17T08:05:17.568Z,64.07
2018-12-17T08:09:23.347Z,50.85
2018-12-17T08:13:29.205Z,61.48
2018-12-17T08:17:36.002Z,49.18
2018-12-17T08:21:42.371Z,49.05
2018-12-17T08:25:48.224Z,60.17
2018-12-17T08:29:53.924Z,53.68
2018-12-17T08:33:59.781Z,62.85
2018-12-17T08:38:05.509Z,57.33
2018-12-17T08:42:11.098Z,55.38
2018-12-17T08:46:17.011Z,52.70
2018-12-17T08:50:22.762Z,48.00
2018-12-17T08:54:28.498Z,45.88
2018-12-17T08:58:34.360Z,45.17
2018-12-17T09:02:39.991Z,42.60
2018-12-17T09:06:45.580Z,47.38
2018-12-17T09:10:51.130Z,40.83
2018-12-17T09:14:56.806Z,42.73
2018-12-17T09:19:02.358Z,40.88
2018-12-17T09:23:08.021Z,42.48
2018-12-17T09:27:13.875Z,40.05
2018-12-17T09:31:19.456Z,41.37
2018-12-17T09:35:25.271Z,36.60
2018-12-17T09:39:30.911Z,37.70
2018-12-17T09:43:36.517Z,36.53
2018-12-17T09:47:42.094Z,36.33
2018-12-17T09:51:47.863Z,36.68
2018-12-17T09:55:53.420Z,32.25
2018-12-17T09:59:59.040Z,32.67
2018-12-17T10:04:07.723Z,34.08
2018-12-17T10:08:13.398Z,32.90
2018-12-17T10:12:19.458Z,32.00
2018-12-17T10:16:25.052Z,32.30
2018-12-17T10:20:30.831Z,32.10
2018-12-17T10:24:36.751Z,31.50
2018-12-17T10:28:42.303Z,31.37
2018-12-17T10:32:47.918Z,29.52
2018-12-17T10:36:53.518Z,28.10
2018-12-17T10:40:59.165Z,27.15
2018-12-17T10:45:05.822Z,26.15
2018-12-17T10:49:11.483Z,22.50
2018-12-17T10:53:17.146Z,22.35
2018-12-17T10:57:23.025Z,23.30
2018-12-17T11:01:33.955Z,23.67
2018-12-17T11:05:42.160Z,24.87
2018-12-17T11:09:47.831Z,25.32
2018-12-17T11:13:53.525Z,22.58
2018-12-17T11:17:59.160Z,24.98
2018-12-17T11:22:04.759Z,25.55
2018-12-17T11:26:10.348Z,26.82
2018-12-17T11:30:15.943Z,26.25
2018-12-17T11:34:21.495Z,26.48
2018-12-17T11:38:27.115Z,27.10
2018-12-17T11:42:33.408Z,28.65
2018-12-17T11:46:38.996Z,25.50
2018-12-17T11:50:44.570Z,25.65
2018-12-17T11:54:50.308Z,22.82
2018-12-17T11:58:55.859Z,22.15
2018-12-17T12:03:03.521Z,20.97
2018-12-17T12:07:09.983Z,19.55
2018-12-17T12:11:16.681Z,19.42
2018-12-17T12:15:22.338Z,18.60
2018-12-17T12:19:28.751Z,20.60
2018-12-17T12:23:34.257Z,19.37
2018-12-17T12:27:39.884Z,19.07
2018-12-17T12:31:45.477Z,19.62
2018-12-17T12:35:50.994Z,19.50
2018-12-17T12:39:56.593Z,20.88
2018-12-17T12:44:08.664Z,20.02
2018-12-17T12:48:09.991Z,22.15
2018-12-17T12:52:15.844Z,22.62
2018-12-17T12:56:21.402Z,21.27
2018-12-17T13:00:27.043Z,20.30
2018-12-17T13:04:34.873Z,21.15
2018-12-17T13:08:40.428Z,22.05
2018-12-17T13:12:46.332Z,20.70
2018-12-17T13:16:52.001Z,21.87
2018-12-17T13:20:57.678Z,20.82
2018-12-17T13:25:04.321Z,23.87
2018-12-17T13:29:11.304Z,25.55
2018-12-17T13:33:18.265Z,23.22
2018-12-17T13:37:23.799Z,22.58
2018-12-17T13:41:29.588Z,22.85
2018-12-17T13:45:35.681Z,22.70
2018-12-17T13:49:41.278Z,23.02
2018-12-17T13:53:46.995Z,24.25
2018-12-17T13:57:52.766Z,24.52
2018-12-17T14:01:58.406Z,25.32
2018-12-17T14:06:04.369Z,26.02
2018-12-17T14:10:17.709Z,25.52
2018-12-17T14:14:23.472Z,25.08
2018-12-17T14:18:34.243Z,25.97
2018-12-17T14:22:40.957Z,25.23
2018-12-17T14:26:46.845Z,25.27
2018-12-17T14:30:52.691Z,27.37
2018-12-17T14:34:59.442Z,26.45
2018-12-17T14:39:07.618Z,24.82
2018-12-17T14:43:14.753Z,25.92
2018-12-17T14:47:20.674Z,26.20
2018-12-17T14:51:26.499Z,26.37
2018-12-17T14:55:33.053Z,26.02
2018-12-17T14:59:38.898Z,24.27
2018-12-17T15:03:45.303Z,24.30
2018-12-17T15:07:52.883Z,26.25
2018-12-17T15:11:58.778Z,25.45
2018-12-17T15:16:04.523Z,25.17
2018-12-17T15:20:11.135Z,24.25
2018-12-17T15:24:16.714Z,25.70
2018-12-17T15:28:22.784Z,24.70
2018-12-17T15:32:28.643Z,25.50
2018-12-17T15:36:34.302Z,24.60
2018-12-17T15:40:40.071Z,23.52
2018-12-17T15:44:45.958Z,24.75
2018-12-17T15:48:51.603Z,23.42
2018-12-17T15:52:57.333Z,24.52
2018-12-17T15:57:03.298Z,23.47
2018-12-17T16:01:08.938Z,23.45
2018-12-17T16:05:14.775Z,22.42
2018-12-17T16:09:20.536Z,22.90
2018-12-17T16:17:37.950Z,22.82
2018-12-17T16:21:44.544Z,23.22
2018-12-17T16:25:50.284Z,21.95
2018-12-17T16:29:56.164Z,23.27
2018-12-17T16:34:01.993Z,21.52
2018-12-17T16:38:13.546Z,22.67
2018-12-17T16:42:19.648Z,22.20
2018-12-17T16:46:26.355Z,21.55
2018-12-17T16:50:32.772Z,22.65
2018-12-17T16:54:41.045Z,22.37
2018-12-17T16:58:47.242Z,22.40
2018-12-17T17:02:54.131Z,24.27
2018-12-17T17:07:01.522Z,23.75
2018-12-17T17:11:15.511Z,22.75
2018-12-17T17:15:23.916Z,22.10
2018-12-17T17:19:36.919Z,23.50
2018-12-17T17:23:47.813Z,25.48
2018-12-17T17:27:54.657Z,25.88
2018-12-17T17:32:03.240Z,24.87
2018-12-17T17:36:09.943Z,24.45
2018-12-17T17:40:17.178Z,25.12
2018-12-17T17:44:23.382Z,25.52
2018-12-17T17:48:29.953Z,28.17
2018-12-17T17:52:36.851Z,27.75
2018-12-17T17:56:42.961Z,27.93
2018-12-17T18:00:50.267Z,28.47
2018-12-17T18:04:56.328Z,27.52
2018-12-17T18:09:11.766Z,27.90
2018-12-17T18:17:58.993Z,27.97
2018-12-17T18:26:34.129Z,26.90
2018-12-17T18:30:40.424Z,25.97
2018-12-17T18:34:50.093Z,25.93
2018-12-17T18:38:59.806Z,26.47
2018-12-17T18:43:08.828Z,24.53
2018-12-17T18:47:25.487Z,26.90
2018-12-17T18:51:29.405Z,28.77
2018-12-17T18:55:37.797Z,26.73
2018-12-17T18:59:44.290Z,25.77
2018-12-17T19:03:52.136Z,24.40
2018-12-17T19:07:58.547Z,25.20
2018-12-17T19:12:04.843Z,24.37
2018-12-17T19:16:11.017Z,24.82
2018-12-17T19:20:17.164Z,22.70
2018-12-17T19:24:23.243Z,24.45
2018-12-17T19:28:29.466Z,23.22
2018-12-17T19:32:40.169Z,23.00
2018-12-17T19:36:48.292Z,20.65
2018-12-17T19:40:55.141Z,20.70
2018-12-17T19:45:03.163Z,21.48
2018-12-17T19:49:13.357Z,20.70
2018-12-17T19:53:20.004Z,21.02
2018-12-17T19:57:26.880Z,20.48
2018-12-17T20:01:35.543Z,19.87
2018-12-17T20:05:44.134Z,19.32
2018-12-17T20:09:50.185Z,19.75
2018-12-17T20:13:56.643Z,18.70
2018-12-17T20:18:05.084Z,20.12
2018-12-17T20:22:11.476Z,18.73
2018-12-17T20:26:19.176Z,18.73
2018-12-17T20:30:25.600Z,19.25
2018-12-17T20:34:32.167Z,19.92
2018-12-17T20:38:40.950Z,18.30
2018-12-17T20:42:48.009Z,18.82
2018-12-17T20:46:54.912Z,19.07
2018-12-17T20:51:01.428Z,29.40
2018-12-17T20:55:09.991Z,20.92
2018-12-17T20:59:17.635Z,17.87
2018-12-17T21:03:24.337Z,17.77
2018-12-17T21:07:32.930Z,18.73
2018-12-17T21:11:41.116Z,18.82
2018-12-17T21:15:47.188Z,19.48
2018-12-17T21:19:53.797Z,19.32
2018-12-17T21:24:00.123Z,18.27
2018-12-17T21:28:06.381Z,18.75
2018-12-17T21:32:12.823Z,18.62
2018-12-17T21:36:19.094Z,20.08
2018-12-17T21:40:26.577Z,19.27
2018-12-17T21:44:34.906Z,18.27
2018-12-17T21:48:40.986Z,20.25
2018-12-17T21:52:47.212Z,19.75
2018-12-17T21:56:53.342Z,19.00
2018-12-17T22:01:00.016Z,21.45
2018-12-17T22:05:06.762Z,21.15
2018-12-17T22:09:13.037Z,20.37
2018-12-17T22:13:21.690Z,20.60
2018-12-17T22:17:27.900Z,19.85
2018-12-17T22:21:34.350Z,18.75
2018-12-17T22:25:40.222Z,18.23
2018-12-17T22:29:46.221Z,18.48
2018-12-17T22:33:52.949Z,19.73
2018-12-17T22:38:00.164Z,20.48
2018-12-17T22:42:06.185Z,20.80
2018-12-17T22:46:12.243Z,21.40
2018-12-17T22:50:19.709Z,20.20
2018-12-17T22:54:25.529Z,22.85
2018-12-17T22:58:31.835Z,19.05
2018-12-17T23:02:38.321Z,21.77
2018-12-17T23:06:44.506Z,19.62
2018-12-17T23:11:08.257Z,20.35
2018-12-17T23:15:30.912Z,18.90
2018-12-17T23:19:44.823Z,18.77
2018-12-17T23:23:52.605Z,18.20
2018-12-17T23:27:58.804Z,19.95
2018-12-17T23:32:05.246Z,20.10
2018-12-17T23:36:11.120Z,19.42
2018-12-17T23:40:17.348Z,17.92
2018-12-17T23:44:23.423Z,19.87
2018-12-17T23:48:30.475Z,20.32
2018-12-17T23:52:36.483Z,19.45
2018-12-17T23:56:43.012Z,19.80
